MMCL/CUL METAR and TAF weather

Enter ICAO airport designator
Station Type Date Time Source
MMCL METAR 2020/01/21 17:44 UTC NOAA

MMCL 211744Z 00000KT 10SM SCT100 SCT230 25/16 A3008 RMK SLP108 52017 905 8/054


Station Type Date Time Source
MMCL Decoded METAR 2020/01/21 17:44 UTC NOAA

Culiacan, Sin., Mexico (MMCL) 24-49N 107-24W
Jan 21, 2020 - 12:44 PM EST / 2020.01.21 1744 UTC
Wind: Calm:0
Visibility: 10 mile(s):0
Sky conditions: partly cloudy
Temperature: 77 F (25 C)
Dew Point: 60 F (16 C)
Relative Humidity: 57%
Pressure (altimeter): 30.08 in. Hg (1018 hPa)
Pressure tendency: 0.05 inches (1.7 hPa) higher than three hours ago
ob: MMCL 211744Z 00000KT 10SM SCT100 SCT230 25/16 A3008 RMK SLP108 52017 905 8/054
cycle: 17

Station Type Date Time Source
MMCL TAF 2020/01/21 18:10 UTC NOAA

TAF MMCL 211707Z 2118/2218 28006KT P6SM SCT100
FM220200 36006KT P6SM SCT030 BKN090
FM221200 00000KT P6SM BKN025 BKN090

Example: see airport list